Terminal Aerodrome Forecast
Issued by NWS Duluth, MN

Home | Current Version | Previous Version | Text Only | Print | Product List | Glossary On
Versions: 1 2 3 4 5 6 7 8 9 10 11 12 13 14 15 16 17 18 19 20 21 22 23
000
FTUS43 KDLH 300500
TAFINL
TAF
KINL 300535Z 3006/3106 26004KT P6SM FEW050
     FM301000 VRB03KT P6SM SCT050
      TEMPO 3010/3013 4SM BR
     FM301700 18005KT P6SM SCT020 BKN060
      TEMPO 3019/3023 5SM -SHRA BKN025 OVC050
     FM302300 VRB04KT 5SM -RA BR BKN018 OVC050=

USA.gov is the U.S. government's official web portal to all federal, state and local government web resources and services.